createdAt,value
2023-05-05T00:07:01.707Z,76.56
2023-05-05T00:17:06.168Z,78.53
2023-05-05T00:27:09.176Z,80.03
2023-05-05T00:37:13.633Z,80.81
2023-05-05T00:47:16.893Z,84.57
2023-05-05T00:57:21.625Z,84.48
2023-05-05T01:07:37.284Z,83.95
2023-05-05T01:17:46.793Z,85.34
2023-05-05T01:28:02.000Z,84.37
2023-05-05T01:38:10.752Z,83.69
2023-05-05T01:48:16.413Z,83.98
2023-05-05T01:58:23.182Z,85.71
2023-05-05T02:08:27.349Z,87.14
2023-05-05T02:18:35.852Z,90.35
2023-05-05T02:28:43.837Z,92.96
2023-05-05T02:38:54.663Z,93.69
2023-05-05T02:49:02.210Z,100.00
2023-05-05T02:59:15.992Z,100.00
2023-05-05T03:09:31.587Z,100.00
2023-05-05T03:19:38.615Z,100.00
2023-05-05T03:29:41.642Z,100.00
2023-05-05T03:39:50.543Z,100.00
2023-05-05T03:49:53.768Z,100.00
2023-05-05T03:59:58.333Z,100.00
2023-05-05T04:10:02.923Z,100.00
2023-05-05T04:20:09.469Z,100.00
2023-05-05T04:30:13.318Z,100.00
2023-05-05T04:40:18.937Z,100.00
2023-05-05T04:50:22.075Z,100.00
2023-05-05T05:00:27.638Z,100.00
2023-05-05T05:10:30.643Z,100.00
2023-05-05T05:20:35.248Z,100.00
2023-05-05T05:30:38.510Z,100.00
2023-05-05T05:40:44.724Z,100.00
2023-05-05T05:50:48.072Z,100.00
2023-05-05T06:00:52.563Z,98.44
2023-05-05T06:10:55.835Z,96.84
2023-05-05T06:21:02.146Z,94.23
2023-05-05T06:31:08.242Z,90.82
2023-05-05T06:41:18.153Z,90.23
2023-05-05T06:51:28.030Z,88.39
2023-05-05T07:01:36.176Z,87.06
2023-05-05T07:11:42.701Z,85.42
2023-05-05T07:21:53.184Z,80.59
2023-05-05T07:31:57.876Z,77.57
2023-05-05T07:42:09.394Z,75.35
2023-05-05T07:52:14.118Z,73.94
2023-05-05T08:02:24.469Z,72.24
2023-05-05T08:12:30.924Z,70.25
2023-05-05T08:22:42.800Z,68.11
2023-05-05T08:32:47.203Z,64.47
2023-05-05T08:42:57.653Z,63.31
2023-05-05T08:53:10.595Z,63.45
2023-05-05T09:03:17.070Z,64.40
2023-05-05T09:13:20.567Z,64.51
2023-05-05T09:23:31.466Z,63.63
2023-05-05T09:33:37.722Z,65.33
2023-05-05T09:43:53.133Z,63.68
2023-05-05T09:53:56.781Z,64.84
2023-05-05T10:04:04.166Z,72.53
2023-05-05T10:14:11.841Z,72.86
2023-05-05T10:24:27.161Z,82.21
2023-05-05T10:34:38.928Z,86.58
2023-05-05T10:44:44.021Z,95.97
2023-05-05T10:54:51.281Z,96.05
2023-05-05T11:05:10.257Z,100.00
2023-05-05T11:15:37.995Z,100.00
2023-05-05T11:25:51.427Z,100.00
2023-05-05T11:35:57.988Z,100.00
2023-05-05T11:46:31.687Z,100.00
2023-05-05T11:56:50.872Z,100.00
2023-05-05T12:06:55.842Z,100.00
2023-05-05T12:17:01.413Z,100.00
2023-05-05T12:27:13.496Z,100.00
2023-05-05T12:37:19.207Z,100.00
2023-05-05T12:47:32.957Z,100.00
2023-05-05T12:57:36.622Z,100.00
2023-05-05T13:07:52.762Z,100.00
2023-05-05T13:18:01.145Z,100.00
2023-05-05T13:28:06.284Z,100.00
2023-05-05T13:38:09.324Z,100.00
2023-05-05T13:48:13.914Z,100.00
2023-05-05T13:58:20.010Z,100.00
2023-05-05T14:08:31.526Z,100.00
2023-05-05T14:18:37.634Z,100.00
2023-05-05T14:28:48.311Z,100.00
2023-05-05T14:38:52.793Z,100.00
2023-05-05T14:49:03.366Z,100.00
2023-05-05T14:59:09.927Z,100.00
2023-05-05T15:09:20.499Z,100.00
2023-05-05T15:19:26.672Z,99.22
2023-05-05T15:29:35.648Z,100.00
2023-05-05T15:39:44.588Z,100.00
2023-05-05T15:49:51.782Z,100.00
2023-05-05T16:00:03.635Z,100.00
2023-05-05T16:10:12.231Z,97.33
2023-05-05T16:20:15.285Z,100.00
2023-05-05T16:30:26.484Z,96.82
2023-05-05T16:40:32.617Z,100.00
2023-05-05T16:50:43.681Z,98.01
2023-05-05T17:00:49.565Z,99.85
2023-05-05T17:11:03.280Z,100.00
2023-05-05T17:21:06.934Z,98.36
2023-05-05T17:31:14.849Z,98.04
2023-05-05T17:41:27.147Z,97.26
2023-05-05T17:51:31.751Z,95.78
2023-05-05T18:01:38.121Z,100.00
2023-05-05T18:11:49.721Z,100.00
2023-05-05T18:21:55.485Z,100.00
2023-05-05T18:32:07.660Z,100.00
2023-05-05T18:42:10.718Z,100.00
2023-05-05T18:52:22.904Z,100.00
2023-05-05T19:02:27.383Z,100.00
2023-05-05T19:12:31.865Z,100.00
2023-05-05T19:22:35.019Z,100.00
2023-05-05T19:32:39.476Z,100.00
2023-05-05T19:42:42.608Z,100.00
2023-05-05T19:52:47.166Z,100.00
2023-05-05T20:02:50.362Z,100.00
2023-05-05T20:12:54.933Z,100.00
2023-05-05T20:23:00.900Z,100.00
2023-05-05T20:33:05.613Z,100.00
2023-05-05T20:43:08.714Z,100.00
2023-05-05T20:53:15.029Z,100.00
2023-05-05T21:03:18.130Z,100.00
2023-05-05T21:13:22.957Z,100.00
2023-05-05T21:23:26.240Z,100.00
2023-05-05T21:33:30.662Z,100.00
2023-05-05T21:43:33.683Z,100.00
2023-05-05T21:53:39.053Z,100.00
2023-05-05T22:03:43.680Z,100.00
2023-05-05T22:13:48.552Z,100.00
2023-05-05T22:23:51.474Z,100.00
2023-05-05T22:33:55.885Z,100.00
2023-05-05T22:43:58.851Z,100.00
2023-05-05T22:54:03.261Z,100.00
2023-05-05T23:04:06.564Z,100.00
2023-05-05T23:14:11.007Z,100.00
2023-05-05T23:24:14.065Z,100.00
2023-05-05T23:34:18.484Z,100.00
2023-05-05T23:44:21.504Z,100.00
2023-05-05T23:54:26.166Z,100.00
